KGRF/GRF METAR and TAF weather

Enter ICAO airport designator
Station Type Date Time Source
KGRF METAR 2020/10/29 16:58 UTC NOAA

KGRF 291658Z AUTO 00000KT 10SM SCT027 OVC036 11/11 A3019 RMK AO2 SLP228 T01140114 $


Station Type Date Time Source
KGRF Decoded METAR 2020/10/29 16:58 UTC NOAA

Fort Lewis / Gray U. S. Army Airfield, WA, United States (KGRF) 47-07N 122-33W 87M
Oct 29, 2020 - 12:58 PM EDT / 2020.10.29 1658 UTC
Wind: Calm:0
Visibility: 10 mile(s):0
Sky conditions: overcast
Temperature: 52.5 F (11.4 C)
Dew Point: 52.5 F (11.4 C)
Relative Humidity: 100%
Pressure (altimeter): 30.19 in. Hg (1022 hPa)
ob: KGRF 291658Z AUTO 00000KT 10SM SCT027 OVC036 11/11 A3019 RMK AO2 SLP228 T01140114
cycle: 17

Station Type Date Time Source
KGRF TAF 2020/10/29 13:33 UTC NOAA

TAF KGRF 291300Z 2913/3019 19005KT 9999 OVC015 QNH3012INS
BECMG 2922/2923 25004KT 9999 BKN020 QNH2993INS
BECMG 3012/3013 25010G15KT 8000 SHRA BKN010 620709 750309 QNH2990INS TX13/2921Z TN04/2915Z

Example: see airport list